Time;durP1;ratioP1;P1;durP2;ratioP2;P2;SDS_P1;SDS_P2;PMS_P1;PMS_P2;Temp;Humidity;BMP_temperature;BMP_pressure;BME280_temperature;BME280_humidity;BME280_pressure;Samples;Min_cycle;Max_cycle;Signal;HPM_P1;HPM_P2
2021/05/10 00:01:12;;;;;;;2.90;2.70;;;20.50;68.50;;;;;;5114077;27;20960;-64
2021/05/10 00:03:38;;;;;;;3.93;2.50;;;20.40;68.20;;;;;;5114531;28;20466;-64
2021/05/10 00:06:05;;;;;;;4.17;2.93;;;20.40;68.20;;;;;;5114031;28;20737;-64
2021/05/10 00:08:32;;;;;;;3.93;2.30;;;20.40;68.20;;;;;;5114161;27;20478;-64
2021/05/10 00:10:59;;;;;;;3.00;2.40;;;20.40;68.10;;;;;;5113662;28;20815;-64
2021/05/10 00:13:27;;;;;;;3.07;2.63;;;20.30;68.00;;;;;;5114185;27;20477;-64
2021/05/10 00:15:54;;;;;;;2.57;2.37;;;20.30;68.00;;;;;;5113772;28;20481;-64
2021/05/10 00:18:20;;;;;;;2.13;1.93;;;20.20;67.90;;;;;;5114202;28;20469;-64
2021/05/10 00:20:48;;;;;;;2.37;1.83;;;20.20;68.00;;;;;;5114134;28;20494;-64
2021/05/10 00:23:16;;;;;;;4.63;2.20;;;20.20;68.00;;;;;;5113494;28;20781;-64
2021/05/10 00:25:44;;;;;;;2.40;2.17;;;20.10;68.00;;;;;;5113723;28;20481;-63
2021/05/10 00:28:12;;;;;;;1.97;1.87;;;20.10;68.00;;;;;;5113334;27;20470;-64
2021/05/10 00:30:39;;;;;;;2.10;2.00;;;20.10;68.80;;;;;;5113085;27;20535;-64
2021/05/10 00:33:06;;;;;;;2.50;2.30;;;20.10;68.00;;;;;;5111370;27;20469;-64
2021/05/10 00:35:32;;;;;;;2.40;2.20;;;20.10;68.10;;;;;;5110117;27;21410;-64
2021/05/10 00:37:59;;;;;;;2.43;2.20;;;20.10;68.10;;;;;;5110721;27;20477;-64
2021/05/10 00:40:27;;;;;;;4.20;2.60;;;20.00;68.20;;;;;;5111517;27;20982;-64
2021/05/10 00:42:55;;;;;;;3.93;2.03;;;20.00;68.20;;;;;;5111036;27;20485;-65
2021/05/10 00:45:22;;;;;;;2.40;1.90;;;20.00;68.20;;;;;;5110605;27;21781;-64
2021/05/10 00:47:49;;;;;;;1.90;1.80;;;19.90;68.20;;;;;;5110944;27;20503;-65
2021/05/10 00:50:16;;;;;;;2.70;2.50;;;19.90;68.30;;;;;;5110728;27;20473;-65
2021/05/10 00:52:43;;;;;;;2.23;2.03;;;19.90;68.20;;;;;;5111245;27;20476;-64
2021/05/10 00:55:12;;;;;;;2.93;2.70;;;19.90;68.90;;;;;;5110824;27;20475;-64
2021/05/10 00:57:41;;;;;;;3.43;2.80;;;19.80;68.40;;;;;;5111010;27;20665;-64
2021/05/10 01:00:11;;;;;;;3.43;2.10;;;19.80;68.60;;;;;;5110418;27;20962;-64
2021/05/10 01:02:38;;;;;;;2.67;2.50;;;19.80;68.70;;;;;;5111295;27;20514;-64
2021/05/10 01:05:07;;;;;;;2.30;2.03;;;19.80;68.60;;;;;;5110610;27;20473;-64
2021/05/10 01:07:34;;;;;;;2.30;2.10;;;19.80;68.60;;;;;;5110481;27;20469;-64
2021/05/10 01:10:01;;;;;;;3.83;1.93;;;19.80;68.60;;;;;;5110720;27;20469;-65
2021/05/10 01:12:28;;;;;;;2.40;2.20;;;19.70;68.50;;;;;;5110393;27;20875;-64
2021/05/10 01:14:55;;;;;;;2.70;2.50;;;19.70;68.60;;;;;;5110896;27;20962;-64
2021/05/10 01:17:22;;;;;;;2.60;2.40;;;19.70;68.60;;;;;;5110565;27;20476;-64
2021/05/10 01:19:48;;;;;;;3.20;2.50;;;19.70;68.70;;;;;;5110557;27;20461;-64
2021/05/10 01:22:17;;;;;;;1.93;1.83;;;19.70;68.70;;;;;;5110581;27;20475;-64
2021/05/10 01:24:44;;;;;;;2.27;2.07;;;19.60;68.70;;;;;;5110253;27;20472;-64
2021/05/10 01:27:11;;;;;;;3.10;2.40;;;19.60;68.80;;;;;;5109986;27;20526;-64
2021/05/10 01:29:37;;;;;;;3.43;3.13;;;19.60;68.90;;;;;;5112928;28;20468;-64
2021/05/10 01:32:05;;;;;;;2.47;2.27;;;19.60;68.90;;;;;;5112682;28;20480;-64
2021/05/10 01:34:31;;;;;;;2.27;2.07;;;19.60;68.90;;;;;;5113060;28;20918;-64
2021/05/10 01:36:58;;;;;;;3.30;2.30;;;19.50;68.90;;;;;;5113018;28;21008;-64
2021/05/10 01:39:24;;;;;;;3.37;3.17;;;19.50;68.90;;;;;;5111995;28;20452;-64
2021/05/10 01:41:52;;;;;;;2.90;2.40;;;19.50;69.00;;;;;;5112714;28;20465;-64
2021/05/10 01:44:18;;;;;;;3.10;2.80;;;19.50;69.20;;;;;;5111529;27;20472;-65
2021/05/10 01:46:44;;;;;;;2.40;2.07;;;19.40;69.10;;;;;;5110979;27;20461;-65
2021/05/10 01:49:11;;;;;;;2.60;2.40;;;19.40;69.20;;;;;;5110690;27;20783;-64
2021/05/10 01:51:37;;;;;;;2.43;2.23;;;19.40;69.40;;;;;;5111212;27;20452;-64
2021/05/10 01:54:05;;;;;;;2.50;2.30;;;19.30;69.50;;;;;;5110471;27;20468;-64
2021/05/10 01:56:34;;;;;;;2.37;2.17;;;19.30;69.60;;;;;;5111324;27;20514;-64
2021/05/10 01:59:01;;;;;;;3.20;2.33;;;19.30;69.80;;;;;;5111557;27;20465;-64
2021/05/10 02:01:28;;;;;;;2.57;2.37;;;19.20;69.70;;;;;;5112546;27;20456;-64
2021/05/10 02:03:54;;;;;;;4.03;1.93;;;19.20;69.90;;;;;;5116656;27;20519;-64
2021/05/10 02:06:21;;;;;;;2.63;2.43;;;19.10;69.80;;;;;;5116611;27;20460;-64
2021/05/10 02:08:47;;;;;;;3.33;2.27;;;19.10;69.90;;;;;;5116801;27;20579;-65
2021/05/10 02:11:14;;;;;;;4.93;2.53;;;19.10;69.90;;;;;;5116567;27;20461;-64
2021/05/10 02:13:40;;;;;;;3.60;2.70;;;19.00;70.20;;;;;;5116779;27;20468;-65
2021/05/10 02:16:07;;;;;;;2.70;2.47;;;18.90;70.00;;;;;;5116624;27;20463;-65
2021/05/10 02:18:35;;;;;;;2.90;2.27;;;18.90;70.20;;;;;;5116989;27;20540;-64
2021/05/10 02:21:02;;;;;;;2.73;2.17;;;18.90;70.10;;;;;;5116670;27;20536;-64
2021/05/10 02:23:30;;;;;;;2.60;2.23;;;18.90;70.00;;;;;;5116207;27;20537;-64
2021/05/10 02:25:59;;;;;;;2.20;2.00;;;18.90;70.00;;;;;;5116834;27;20498;-65
2021/05/10 02:28:27;;;;;;;2.20;1.93;;;18.90;69.90;;;;;;5116055;27;20444;-65
2021/05/10 02:30:55;;;;;;;1.73;1.63;;;18.90;70.70;;;;;;5116731;27;20460;-64
2021/05/10 02:33:25;;;;;;;4.57;2.50;;;18.80;69.70;;;;;;5116315;27;20475;-64
2021/05/10 02:35:53;;;;;;;4.67;2.37;;;18.70;69.90;;;;;;5116446;27;20464;-64
2021/05/10 02:38:21;;;;;;;2.43;2.23;;;18.70;69.90;;;;;;5115991;27;20464;-64
2021/05/10 02:40:48;;;;;;;2.20;2.00;;;18.70;70.00;;;;;;5116469;27;20456;-64
2021/05/10 02:43:15;;;;;;;2.20;2.10;;;18.70;70.00;;;;;;5115843;27;20499;-64
2021/05/10 02:45:42;;;;;;;2.70;2.00;;;18.70;70.00;;;;;;5116472;27;20529;-64
2021/05/10 02:48:09;;;;;;;2.37;1.70;;;18.70;70.10;;;;;;5115856;27;20468;-65
2021/05/10 02:50:36;;;;;;;2.20;2.10;;;18.60;69.90;;;;;;5116334;27;20464;-64
2021/05/10 02:53:03;;;;;;;1.77;1.67;;;18.60;70.00;;;;;;5116272;27;20491;-65
2021/05/10 02:55:29;;;;;;;2.57;2.37;;;18.60;70.10;;;;;;5115639;27;20460;-65
2021/05/10 02:57:56;;;;;;;3.17;2.40;;;18.60;70.00;;;;;;5115829;27;20468;-65
2021/05/10 03:00:24;;;;;;;4.60;2.30;;;18.60;70.00;;;;;;5115612;27;20465;-64
2021/05/10 03:02:51;;;;;;;2.83;2.63;;;18.50;69.90;;;;;;5116037;27;20745;-65
2021/05/10 03:05:19;;;;;;;2.00;1.60;;;18.50;69.80;;;;;;5115392;27;20487;-64
2021/05/10 03:07:47;;;;;;;6.23;2.10;;;18.50;69.90;;;;;;5115797;27;20464;-65
2021/05/10 03:10:16;;;;;;;2.03;1.83;;;18.50;69.80;;;;;;5115158;27;20514;-64
2021/05/10 03:12:43;;;;;;;2.27;2.10;;;18.50;69.70;;;;;;5115624;27;20460;-64
2021/05/10 03:15:11;;;;;;;2.20;2.00;;;18.50;69.90;;;;;;5114076;27;20465;-64
2021/05/10 03:17:37;;;;;;;3.57;2.23;;;18.50;70.00;;;;;;5115612;27;20469;-64
2021/05/10 03:20:05;;;;;;;2.07;1.97;;;18.40;69.90;;;;;;5115470;27;20460;-64
2021/05/10 03:22:32;;;;;;;2.63;2.10;;;18.40;70.00;;;;;;5115242;27;20465;-64
2021/05/10 03:24:59;;;;;;;3.50;2.03;;;18.40;70.00;;;;;;5115309;27;20536;-65
2021/05/10 03:27:26;;;;;;;4.77;2.47;;;18.40;70.90;;;;;;5114878;27;20526;-65
2021/05/10 03:29:52;;;;;;;4.50;2.33;;;18.40;70.00;;;;;;5115473;27;20464;-65
2021/05/10 03:32:20;;;;;;;3.40;2.43;;;18.30;69.90;;;;;;5114783;27;20525;-64
2021/05/10 03:34:46;;;;;;;2.43;2.23;;;18.30;69.80;;;;;;5115177;27;20954;-64
2021/05/10 03:37:13;;;;;;;2.80;2.50;;;18.30;69.90;;;;;;5114818;27;20473;-64
2021/05/10 03:39:39;;;;;;;2.90;2.23;;;18.30;69.90;;;;;;5115029;27;20467;-64
2021/05/10 03:42:07;;;;;;;3.83;1.70;;;18.30;70.70;;;;;;5115147;27;20465;-64
2021/05/10 03:44:34;;;;;;;3.10;1.80;;;18.30;69.90;;;;;;5114656;27;20533;-64
2021/05/10 03:47:00;;;;;;;2.37;2.17;;;18.30;69.90;;;;;;5115173;27;20465;-65
2021/05/10 03:49:26;;;;;;;2.30;2.10;;;18.30;69.80;;;;;;5114695;27;20460;-65
2021/05/10 03:51:53;;;;;;;2.43;2.23;;;18.20;69.70;;;;;;5114785;27;20468;-64
2021/05/10 03:54:19;;;;;;;2.37;1.93;;;18.20;69.60;;;;;;5114264;27;20782;-65
2021/05/10 03:56:46;;;;;;;2.37;2.20;;;18.20;69.70;;;;;;5114892;27;20981;-64
2021/05/10 03:59:13;;;;;;;2.93;2.27;;;18.20;69.60;;;;;;5114206;27;20475;-65
2021/05/10 04:01:39;;;;;;;2.60;2.40;;;18.20;69.40;;;;;;5114770;27;20464;-65
2021/05/10 04:04:14;;;;;;;4.03;2.40;;;18.20;69.40;;;;;;5114651;27;20468;-65
2021/05/10 04:06:52;;;;;;;1.97;1.87;;;18.20;69.30;;;;;;5114346;27;20460;-64
2021/05/10 04:14:38;;;;;;;1.80;1.70;;;18.10;69.50;;;;;;5114269;27;20933;-64
2021/05/10 04:17:04;;;;;;;2.20;1.93;;;18.20;69.40;;;;;;5114359;27;20461;-65
2021/05/10 04:19:31;;;;;;;2.90;1.80;;;18.20;69.20;;;;;;5114098;27;20513;-65
2021/05/10 04:21:57;;;;;;;2.83;2.60;;;18.20;69.20;;;;;;5114629;27;20486;-65
2021/05/10 04:24:24;;;;;;;2.27;2.07;;;18.10;69.10;;;;;;5113753;27;20950;-64
2021/05/10 04:26:52;;;;;;;2.47;1.97;;;18.10;69.10;;;;;;5113827;27;20480;-65
2021/05/10 04:29:18;;;;;;;4.70;1.90;;;18.10;69.20;;;;;;5113895;27;20469;-64
2021/05/10 04:31:45;;;;;;;1.90;1.80;;;18.10;69.10;;;;;;5114254;27;20457;-64
2021/05/10 04:34:12;;;;;;;2.80;1.83;;;18.10;69.10;;;;;;5114228;27;20799;-64
2021/05/10 04:36:38;;;;;;;2.67;2.03;;;18.10;68.90;;;;;;5113696;27;20463;-64
2021/05/10 04:39:05;;;;;;;5.37;2.30;;;18.10;69.90;;;;;;5113964;27;20468;-64
2021/05/10 04:41:31;;;;;;;4.37;1.90;;;18.10;68.90;;;;;;5113527;27;20475;-64
2021/05/10 04:43:58;;;;;;;2.23;2.03;;;18.10;68.80;;;;;;5114092;27;20475;-64
2021/05/10 04:46:24;;;;;;;3.20;2.10;;;18.20;68.80;;;;;;5113447;27;20471;-65
2021/05/10 04:48:51;;;;;;;3.40;2.40;;;18.20;68.60;;;;;;5113685;27;20461;-64
2021/05/10 04:51:18;;;;;;;5.17;2.50;;;18.20;68.50;;;;;;5113973;27;20508;-64
2021/05/10 04:53:44;;;;;;;3.53;2.27;;;18.20;68.20;;;;;;5113292;27;20543;-64
2021/05/10 04:56:11;;;;;;;3.23;2.30;;;18.20;68.00;;;;;;5113688;27;20464;-65
2021/05/10 04:58:37;;;;;;;2.43;2.23;;;18.20;68.00;;;;;;5113037;27;20529;-65
2021/05/10 05:01:03;;;;;;;4.53;2.50;;;18.30;68.80;;;;;;5113580;27;20460;-64
2021/05/10 05:03:31;;;;;;;2.87;2.30;;;18.30;67.70;;;;;;5113316;27;20464;-64
2021/05/10 05:05:58;;;;;;;2.37;2.00;;;18.30;67.80;;;;;;5113420;27;20468;-65
2021/05/10 05:08:24;;;;;;;2.53;1.90;;;18.40;67.70;;;;;;5113156;27;20790;-64
2021/05/10 05:10:51;;;;;;;4.80;1.90;;;18.40;67.40;;;;;;5113456;27;20954;-64
2021/05/10 05:13:22;;;;;;;4.60;2.00;;;18.40;67.30;;;;;;5113286;27;20465;-64
2021/05/10 05:15:48;;;;;;;2.60;2.40;;;18.50;67.30;;;;;;5113207;27;20467;-64
2021/05/10 05:18:15;;;;;;;4.20;2.97;;;18.60;67.30;;;;;;5113419;27;20471;-64
2021/05/10 05:20:41;;;;;;;2.53;1.53;;;18.60;67.10;;;;;;5112962;27;20476;-64
2021/05/10 05:23:20;;;;;;;4.43;2.10;;;18.60;67.00;;;;;;5113460;27;20460;-64
2021/05/10 05:25:46;;;;;;;2.90;2.43;;;18.70;67.00;;;;;;5112892;27;20460;-64
2021/05/10 05:28:13;;;;;;;2.47;2.10;;;18.70;66.90;;;;;;5113122;27;20457;-64
2021/05/10 05:30:39;;;;;;;2.57;2.20;;;18.70;66.30;;;;;;5112696;27;20461;-64
2021/05/10 05:33:06;;;;;;;2.97;2.20;;;18.70;66.30;;;;;;5113541;27;20472;-64
2021/05/10 05:35:32;;;;;;;3.97;2.80;;;18.70;65.80;;;;;;5112651;27;20476;-65
2021/05/10 05:37:59;;;;;;;4.00;2.33;;;18.70;66.10;;;;;;5112306;27;20464;-64
2021/05/10 05:40:27;;;;;;;2.13;1.93;;;18.70;65.90;;;;;;5112891;27;20468;-64
2021/05/10 05:42:53;;;;;;;4.00;2.70;;;18.80;65.90;;;;;;5113122;27;20460;-64
2021/05/10 05:45:19;;;;;;;3.30;2.33;;;18.80;65.80;;;;;;5112954;27;20858;-64
2021/05/10 05:47:46;;;;;;;2.60;2.40;;;18.90;65.90;;;;;;5112564;27;20911;-64
2021/05/10 05:50:13;;;;;;;3.70;1.97;;;19.00;65.70;;;;;;5112954;27;20475;-65
2021/05/10 05:52:39;;;;;;;2.73;1.77;;;19.00;65.00;;;;;;5112666;27;20483;-65
2021/05/10 05:55:06;;;;;;;1.90;1.80;;;19.10;65.00;;;;;;5113104;27;20472;-65
2021/05/10 05:57:34;;;;;;;2.87;2.43;;;19.20;64.50;;;;;;5112321;27;20660;-65
2021/05/10 06:00:02;;;;;;;4.10;2.77;;;19.20;64.40;;;;;;5112794;27;20483;-64
2021/05/10 06:02:29;;;;;;;3.03;2.57;;;19.30;64.70;;;;;;5112550;27;20984;-64
2021/05/10 06:04:55;;;;;;;2.33;2.10;;;19.40;64.50;;;;;;5112770;27;20465;-63
2021/05/10 06:07:22;;;;;;;6.40;2.40;;;19.40;63.90;;;;;;5112828;27;20530;-63
2021/05/10 06:09:49;;;;;;;2.43;2.23;;;19.40;63.70;;;;;;5112146;27;20510;-63
2021/05/10 06:12:15;;;;;;;4.13;2.17;;;19.50;63.90;;;;;;5112887;27;20468;-63
2021/05/10 06:14:42;;;;;;;4.63;2.10;;;19.50;63.60;;;;;;5112515;27;20460;-64
2021/05/10 06:17:10;;;;;;;2.00;1.90;;;19.70;63.70;;;;;;5112606;27;20534;-64
2021/05/10 06:19:36;;;;;;;4.40;2.13;;;19.70;63.20;;;;;;5112450;27;20997;-64
2021/05/10 06:22:03;;;;;;;2.50;2.10;;;19.80;62.50;;;;;;5113072;27;20791;-64
2021/05/10 06:24:30;;;;;;;5.60;2.20;;;19.80;62.60;;;;;;5112274;27;20475;-64
2021/05/10 06:26:56;;;;;;;3.43;1.83;;;19.90;62.60;;;;;;5112559;27;20460;-64
2021/05/10 06:29:22;;;;;;;2.73;2.00;;;20.00;62.20;;;;;;5112506;27;20472;-64
2021/05/10 06:31:50;;;;;;;3.20;2.90;;;20.10;62.30;;;;;;5111779;27;20467;-65
2021/05/10 06:34:16;;;;;;;1.73;1.63;;;20.20;62.20;;;;;;5112530;27;20500;-65
2021/05/10 06:36:43;;;;;;;4.10;3.30;;;20.30;61.80;;;;;;5111294;27;20463;-63
2021/05/10 06:39:09;;;;;;;3.37;2.40;;;20.40;61.60;;;;;;5111425;27;20474;-65
2021/05/10 06:41:35;;;;;;;3.73;2.00;;;20.50;61.30;;;;;;5112198;27;20465;-65
2021/05/10 06:44:02;;;;;;;3.53;2.60;;;20.70;62.40;;;;;;5112603;27;21025;-65
2021/05/10 06:46:28;;;;;;;1.67;1.57;;;20.80;60.90;;;;;;5112729;27;20470;-65
2021/05/10 06:48:56;;;;;;;4.20;1.87;;;20.90;60.30;;;;;;5114180;27;20462;-65
2021/05/10 06:51:22;;;;;;;5.20;2.30;;;21.00;60.20;;;;;;5116020;27;20460;-65
2021/05/10 06:53:48;;;;;;;3.67;3.20;;;21.20;60.10;;;;;;5115575;27;20533;-65
2021/05/10 06:56:15;;;;;;;3.10;2.80;;;21.40;59.70;;;;;;5116208;27;20467;-65
2021/05/10 06:58:41;;;;;;;2.03;1.83;;;21.60;59.70;;;;;;5115352;27;20801;-65
2021/05/10 07:01:08;;;;;;;2.20;2.10;;;21.60;59.00;;;;;;5115905;27;20467;-64
2021/05/10 07:03:34;;;;;;;3.60;2.20;;;21.80;58.80;;;;;;5115549;27;20463;-64
2021/05/10 07:06:01;;;;;;;2.30;2.10;;;21.90;58.80;;;;;;5115716;27;20467;-64
2021/05/10 07:08:28;;;;;;;4.20;2.40;;;22.00;58.70;;;;;;5115646;27;20464;-65
2021/05/10 07:10:54;;;;;;;4.33;2.40;;;22.00;58.30;;;;;;5115397;27;20490;-64
2021/05/10 07:13:22;;;;;;;4.10;2.50;;;22.10;58.40;;;;;;5115697;27;20471;-64
2021/05/10 07:15:48;;;;;;;2.50;2.30;;;22.20;59.20;;;;;;5115315;27;20483;-65
2021/05/10 07:18:16;;;;;;;2.37;2.17;;;22.30;58.50;;;;;;5115583;27;20476;-65
2021/05/10 07:20:44;;;;;;;3.10;2.80;;;22.40;59.00;;;;;;5115309;27;21110;-65
2021/05/10 07:23:13;;;;;;;3.13;2.93;;;22.50;58.20;;;;;;5115580;27;20467;-65
2021/05/10 07:25:41;;;;;;;2.60;2.10;;;22.70;58.40;;;;;;5114993;27;20465;-65
2021/05/10 07:28:08;;;;;;;3.27;2.30;;;22.90;58.00;;;;;;5115110;27;20989;-65
2021/05/10 07:30:35;;;;;;;6.57;2.70;;;23.10;58.20;;;;;;5115131;27;20468;-65
2021/05/10 07:33:01;;;;;;;3.53;2.13;;;23.30;58.10;;;;;;5115430;27;20814;-65
2021/05/10 07:35:31;;;;;;;3.13;2.77;;;23.40;58.30;;;;;;5115216;27;20465;-65
2021/05/10 07:37:57;;;;;;;2.30;2.10;;;23.40;58.10;;;;;;5114798;27;20490;-65
2021/05/10 07:40:25;;;;;;;2.90;2.60;;;23.50;57.60;;;;;;5115090;27;20464;-65
2021/05/10 07:42:51;;;;;;;4.17;2.10;;;23.60;58.20;;;;;;5114572;27;20461;-64
2021/05/10 07:45:18;;;;;;;2.80;2.60;;;23.60;57.90;;;;;;5115183;27;20464;-64
2021/05/10 07:47:48;;;;;;;2.87;2.67;;;23.60;57.80;;;;;;5114501;27;20563;-64
2021/05/10 07:50:15;;;;;;;2.20;1.90;;;23.70;58.10;;;;;;5114946;27;20472;-64
2021/05/10 07:52:42;;;;;;;4.20;2.43;;;23.70;57.90;;;;;;5114581;27;20542;-65
2021/05/10 07:55:09;;;;;;;2.30;2.10;;;23.70;57.70;;;;;;5114776;27;20529;-65
2021/05/10 07:57:36;;;;;;;2.43;2.23;;;23.80;57.90;;;;;;5114604;27;20468;-65
2021/05/10 08:00:07;;;;;;;2.00;1.80;;;23.70;57.80;;;;;;5113912;27;20464;-65
2021/05/10 08:02:35;;;;;;;2.00;1.80;;;23.80;58.00;;;;;;5114763;27;20464;-65
2021/05/10 08:05:01;;;;;;;3.73;2.20;;;23.90;58.20;;;;;;5114583;27;20463;-64
2021/05/10 08:07:28;;;;;;;2.53;2.33;;;23.90;57.30;;;;;;5114505;27;20474;-65
2021/05/10 08:09:55;;;;;;;2.90;2.60;;;23.80;57.20;;;;;;5113939;27;20817;-65
2021/05/10 08:12:21;;;;;;;2.70;2.50;;;23.90;58.00;;;;;;5114792;27;20842;-65
2021/05/10 08:14:49;;;;;;;3.47;2.50;;;24.00;57.60;;;;;;5114036;27;20528;-64
2021/05/10 08:17:15;;;;;;;2.57;2.33;;;24.10;57.00;;;;;;5114347;27;20974;-64
2021/05/10 08:19:41;;;;;;;4.17;2.20;;;24.10;56.90;;;;;;5114078;27;20468;-64
2021/05/10 08:22:08;;;;;;;2.00;1.87;;;24.20;57.40;;;;;;5114224;27;20463;-64
2021/05/10 08:24:34;;;;;;;4.73;3.10;;;24.20;56.90;;;;;;5114292;27;21015;-64
2021/05/10 08:27:01;;;;;;;2.93;2.70;;;24.30;57.30;;;;;;5114080;27;20468;-64
2021/05/10 08:29:27;;;;;;;4.90;3.07;;;24.40;57.30;;;;;;5114042;27;20488;-64
2021/05/10 08:31:55;;;;;;;5.10;2.60;;;24.50;57.20;;;;;;5113831;27;20464;-64
2021/05/10 08:34:22;;;;;;;2.67;2.20;;;24.40;56.40;;;;;;5114280;27;20478;-64
2021/05/10 08:36:50;;;;;;;2.43;1.87;;;24.40;56.10;;;;;;5113487;27;20483;-65
2021/05/10 08:39:17;;;;;;;3.50;2.10;;;24.50;56.30;;;;;;5113948;27;20468;-65
2021/05/10 08:41:43;;;;;;;5.40;2.60;;;24.50;56.40;;;;;;5113634;27;20467;-64
2021/05/10 08:44:11;;;;;;;2.60;2.40;;;24.50;56.00;;;;;;5113868;27;20464;-64
2021/05/10 08:46:40;;;;;;;4.77;2.50;;;24.50;56.10;;;;;;5113799;27;20465;-63
2021/05/10 08:49:08;;;;;;;3.37;2.77;;;24.50;56.10;;;;;;5113626;27;21278;-64
2021/05/10 08:51:35;;;;;;;3.30;2.30;;;24.50;56.30;;;;;;5113848;27;20481;-65
2021/05/10 08:54:03;;;;;;;4.63;3.20;;;24.50;56.10;;;;;;5113499;27;20448;-65
2021/05/10 08:56:29;;;;;;;3.50;2.80;;;24.50;56.20;;;;;;5113678;27;20806;-65
2021/05/10 08:58:57;;;;;;;6.97;3.53;;;24.50;56.00;;;;;;5113205;27;20469;-64
2021/05/10 09:01:23;;;;;;;3.00;2.80;;;24.50;56.30;;;;;;5113714;27;20477;-65
2021/05/10 09:03:51;;;;;;;7.20;3.23;;;24.60;56.50;;;;;;5113188;27;20460;-64
2021/05/10 09:06:29;;;;;;;3.03;2.30;;;24.60;56.90;;;;;;5113402;27;20464;-64
2021/05/10 09:09:03;;;;;;;2.77;2.33;;;24.60;56.30;;;;;;5113091;27;20468;-64
2021/05/10 09:11:30;;;;;;;22.03;4.20;;;24.60;56.00;;;;;;5113512;27;20460;-64
2021/05/10 09:13:59;;;;;;;6.10;4.47;;;24.60;56.00;;;;;;5113278;27;20460;-64
2021/05/10 09:16:26;;;;;;;5.00;4.47;;;24.60;56.70;;;;;;5113601;27;20461;-64
2021/05/10 09:18:54;;;;;;;4.00;2.67;;;24.70;58.00;;;;;;5113029;27;20464;-64
2021/05/10 09:21:23;;;;;;;9.33;3.33;;;24.70;56.60;;;;;;5113292;27;20464;-64
2021/05/10 09:23:51;;;;;;;3.27;2.97;;;24.70;56.50;;;;;;5112765;27;20460;-64
2021/05/10 09:26:27;;;;;;;8.83;3.20;;;24.70;56.50;;;;;;5113655;27;20461;-65
2021/05/10 09:28:54;;;;;;;5.13;2.43;;;24.70;55.70;;;;;;5113043;27;20471;-65
2021/05/10 09:31:20;;;;;;;4.23;2.77;;;24.70;55.90;;;;;;5113172;27;20464;-64
2021/05/10 09:33:48;;;;;;;6.33;3.83;;;24.70;55.80;;;;;;5113008;27;20962;-65
2021/05/10 09:36:33;;;;;;;6.50;3.07;;;24.80;56.10;;;;;;5113170;27;20460;-65
2021/05/10 09:39:02;;;;;;;3.50;2.60;;;24.80;56.40;;;;;;5112834;27;20863;-64
2021/05/10 09:41:28;;;;;;;2.87;2.50;;;24.80;56.00;;;;;;5113139;27;20529;-65
2021/05/10 09:44:00;;;;;;;6.30;2.83;;;24.90;56.10;;;;;;5112848;27;20460;-65
2021/05/10 09:46:38;;;;;;;4.40;2.50;;;24.90;56.60;;;;;;5112998;27;20456;-64
2021/05/10 09:49:05;;;;;;;3.50;2.50;;;24.90;56.20;;;;;;5111925;27;20867;-64
2021/05/10 09:51:32;;;;;;;4.27;2.17;;;25.00;56.40;;;;;;5112429;27;20598;-64
2021/05/10 09:53:59;;;;;;;2.70;2.20;;;25.00;56.50;;;;;;5111637;27;20469;-65
2021/05/10 09:56:29;;;;;;;4.80;2.20;;;25.00;56.30;;;;;;5111942;27;20475;-65
2021/05/10 09:58:58;;;;;;;2.80;1.90;;;25.10;56.20;;;;;;5111543;27;20585;-64
2021/05/10 10:01:25;;;;;;;4.93;2.70;;;25.10;56.30;;;;;;5111972;27;20460;-65
2021/05/10 10:03:59;;;;;;;2.90;2.63;;;25.10;56.30;;;;;;5111615;27;20461;-66
2021/05/10 10:06:28;;;;;;;2.53;2.33;;;25.20;56.10;;;;;;5112803;27;20535;-64
2021/05/10 10:08:56;;;;;;;6.67;3.50;;;25.20;56.10;;;;;;5112301;27;20501;-64
2021/05/10 10:11:24;;;;;;;5.23;2.70;;;25.20;55.80;;;;;;5112848;27;20457;-65
2021/05/10 10:13:52;;;;;;;3.17;2.40;;;25.30;56.10;;;;;;5112471;27;20481;-64
2021/05/10 10:16:20;;;;;;;2.77;2.57;;;25.40;56.20;;;;;;5113142;27;20460;-64
2021/05/10 10:18:48;;;;;;;3.33;2.20;;;25.40;56.10;;;;;;5112735;27;20471;-65
2021/05/10 10:21:16;;;;;;;2.83;2.63;;;25.50;55.90;;;;;;5112390;27;20452;-65
2021/05/10 10:23:45;;;;;;;6.40;3.00;;;25.60;56.00;;;;;;5114489;27;20990;-65
2021/05/10 10:26:14;;;;;;;8.60;2.73;;;25.60;55.70;;;;;;5116299;27;20527;-65
2021/05/10 10:28:42;;;;;;;3.90;3.60;;;25.70;55.90;;;;;;5116485;27;20835;-64
2021/05/10 10:31:14;;;;;;;3.87;2.50;;;25.80;56.10;;;;;;5116212;27;20476;-64
2021/05/10 10:33:49;;;;;;;3.43;2.50;;;25.80;55.30;;;;;;5116377;27;20456;-63
2021/05/10 10:36:22;;;;;;;4.00;2.80;;;25.90;55.30;;;;;;5116068;27;21045;-65
2021/05/10 10:39:10;;;;;;;2.60;2.40;;;25.90;55.30;;;;;;5116230;27;20469;-65
2021/05/10 10:41:55;;;;;;;3.30;2.47;;;25.90;55.30;;;;;;5111796;27;20474;-65
2021/05/10 10:44:34;;;;;;;3.43;2.30;;;26.00;55.40;;;;;;5116090;27;20545;-65
2021/05/10 10:47:03;;;;;;;2.80;2.10;;;26.00;55.00;;;;;;5108000;28;20468;-65
2021/05/10 10:49:32;;;;;;;5.27;2.70;;;26.00;54.70;;;;;;5116245;27;20465;-65
2021/05/10 10:51:59;;;;;;;5.30;2.70;;;26.10;55.70;;;;;;5115404;27;20468;-65
2021/05/10 10:54:27;;;;;;;3.80;2.60;;;26.10;55.10;;;;;;5115380;28;20529;-65
2021/05/10 10:56:58;;;;;;;4.07;3.63;;;26.10;54.80;;;;;;5115626;28;20460;-65
2021/05/10 10:59:27;;;;;;;3.77;2.53;;;26.20;55.40;;;;;;5115752;28;20468;-64
2021/05/10 11:01:55;;;;;;;2.50;2.30;;;26.20;55.20;;;;;;5115380;28;20468;-65
2021/05/10 11:04:28;;;;;;;2.60;2.13;;;26.30;55.10;;;;;;5116086;28;20456;-64
2021/05/10 11:06:55;;;;;;;3.70;3.17;;;26.30;54.90;;;;;;5115311;28;21078;-64
2021/05/10 11:09:54;;;;;;;2.67;2.40;;;26.30;54.70;;;;;;5115600;27;20544;-65
2021/05/10 11:12:50;;;;;;;4.23;3.73;;;26.40;54.50;;;;;;5115677;27;20986;-65
2021/05/10 11:15:47;;;;;;;3.60;3.20;;;26.40;54.80;;;;;;5115652;28;20460;-65
2021/05/10 11:18:38;;;;;;;4.60;3.70;;;26.40;54.70;;;;;;5115575;28;20461;-64
2021/05/10 11:21:06;;;;;;;2.47;2.27;;;26.50;54.60;;;;;;5115329;28;21030;-64
2021/05/10 11:23:49;;;;;;;3.13;2.00;;;26.50;53.90;;;;;;5115450;28;20452;-64
2021/05/10 11:26:37;;;;;;;2.23;2.03;;;26.50;53.90;;;;;;5114929;28;20517;-64
2021/05/10 11:29:05;;;;;;;2.97;2.17;;;26.50;53.80;;;;;;5115009;27;20499;-64
2021/05/10 11:31:35;;;;;;;3.90;3.70;;;26.50;53.50;;;;;;5115320;28;20520;-64
2021/05/10 11:34:12;;;;;;;4.27;3.87;;;26.60;54.00;;;;;;5114799;27;20522;-64
2021/05/10 11:36:52;;;;;;;6.50;3.27;;;26.60;54.20;;;;;;5114667;28;20474;-64
2021/05/10 11:39:23;;;;;;;6.50;3.07;;;26.70;54.00;;;;;;5114782;28;20518;-64
2021/05/10 11:41:51;;;;;;;3.83;2.50;;;26.70;54.30;;;;;;5115194;28;20616;-64
2021/05/10 11:44:23;;;;;;;4.40;2.63;;;26.70;53.60;;;;;;5114872;28;20535;-65
2021/05/10 11:46:51;;;;;;;3.20;2.93;;;26.70;53.30;;;;;;5114902;28;20815;-65
2021/05/10 11:49:32;;;;;;;4.47;2.60;;;26.80;53.50;;;;;;5114493;28;20460;-65
2021/05/10 11:52:00;;;;;;;2.13;2.03;;;26.80;53.40;;;;;;5114890;28;20460;-65
2021/05/10 11:54:29;;;;;;;3.20;2.73;;;26.90;53.10;;;;;;5114588;28;21229;-65
2021/05/10 11:56:57;;;;;;;2.80;1.70;;;26.90;52.80;;;;;;5114786;27;20798;-65
2021/05/10 11:59:38;;;;;;;3.70;2.00;;;27.00;52.10;;;;;;5114294;28;20457;-65
2021/05/10 12:02:13;;;;;;;2.57;2.37;;;27.10;52.20;;;;;;5114410;28;20479;-65
2021/05/10 12:04:41;;;;;;;2.10;1.67;;;27.00;51.40;;;;;;5115012;28;20860;-65
2021/05/10 12:07:08;;;;;;;8.23;2.77;;;27.10;51.50;;;;;;5114182;27;20464;-64
2021/05/10 12:09:46;;;;;;;2.10;1.90;;;27.10;52.00;;;;;;5114375;27;20464;-65
2021/05/10 12:12:33;;;;;;;4.30;2.40;;;27.20;52.10;;;;;;5114247;28;20525;-65
2021/05/10 12:15:09;;;;;;;2.50;2.10;;;27.20;52.40;;;;;;5114658;28;20475;-65
2021/05/10 12:17:36;;;;;;;3.90;2.27;;;27.20;51.70;;;;;;5114489;28;21577;-65
2021/05/10 12:20:06;;;;;;;3.33;2.10;;;27.30;51.40;;;;;;5114479;28;20461;-65
2021/05/10 12:22:34;;;;;;;9.80;3.23;;;27.30;51.60;;;;;;5113781;27;20529;-65
2021/05/10 12:25:12;;;;;;;2.40;2.17;;;27.40;51.60;;;;;;5114366;27;20475;-65
2021/05/10 12:27:45;;;;;;;4.37;2.13;;;27.40;50.80;;;;;;5114028;28;20452;-65
2021/05/10 12:30:29;;;;;;;3.37;2.10;;;27.40;51.10;;;;;;5114065;27;20469;-65
2021/05/10 12:32:58;;;;;;;2.50;2.30;;;27.40;51.10;;;;;;5114264;28;20605;-64
2021/05/10 12:35:26;;;;;;;5.03;2.33;;;27.50;51.40;;;;;;5114208;28;20464;-65
2021/05/10 12:37:55;;;;;;;4.87;2.40;;;27.50;51.20;;;;;;5114185;27;20480;-65
2021/05/10 12:40:23;;;;;;;2.70;2.50;;;27.50;51.50;;;;;;5113482;28;20526;-64
2021/05/10 12:43:11;;;;;;;3.03;2.10;;;27.50;50.80;;;;;;5114059;28;20460;-65
2021/05/10 12:45:39;;;;;;;4.07;2.30;;;27.50;50.70;;;;;;5113597;28;20943;-65
2021/05/10 12:48:17;;;;;;;4.53;2.30;;;27.60;50.90;;;;;;5113758;27;20962;-65
2021/05/10 12:50:45;;;;;;;3.07;2.50;;;27.60;51.10;;;;;;5116294;27;20473;-65
2021/05/10 12:53:11;;;;;;;2.67;2.23;;;27.70;50.80;;;;;;5123188;27;20475;-65
2021/05/10 12:55:39;;;;;;;2.70;2.20;;;27.70;50.70;;;;;;5093259;28;20457;-65
2021/05/10 12:58:21;;;;;;;2.10;2.00;;;27.80;50.60;;;;;;5093186;28;20465;-65
2021/05/10 13:00:49;;;;;;;2.53;2.13;;;27.80;50.70;;;;;;5092695;28;20476;-65